sensor_id;sensor_type;location;lat;lon;timestamp;temperature;humidity
68943;DHT22;60852;52.190;4.422;2022-08-14T00:00:44;23.45;57.54
68943;DHT22;60852;52.190;4.422;2022-08-14T00:03:29;23.38;57.89
68943;DHT22;60852;52.190;4.422;2022-08-14T00:06:00;23.36;58.04
68943;DHT22;60852;52.190;4.422;2022-08-14T00:08:25;23.27;58.41
68943;DHT22;60852;52.190;4.422;2022-08-14T00:10:51;23.18;58.85
68943;DHT22;60852;52.190;4.422;2022-08-14T00:13:22;23.08;59.26
68943;DHT22;60852;52.190;4.422;2022-08-14T00:15:50;23.03;59.55
68943;DHT22;60852;52.190;4.422;2022-08-14T00:18:20;22.98;59.67
68943;DHT22;60852;52.190;4.422;2022-08-14T00:20:46;22.95;59.82
68943;DHT22;60852;52.190;4.422;2022-08-14T00:23:14;22.92;60.00
68943;DHT22;60852;52.190;4.422;2022-08-14T00:25:42;22.88;60.19
68943;DHT22;60852;52.190;4.422;2022-08-14T00:28:10;22.90;60.30
68943;DHT22;60852;52.190;4.422;2022-08-14T00:30:36;22.87;60.34
68943;DHT22;60852;52.190;4.422;2022-08-14T00:33:02;22.85;60.45
68943;DHT22;60852;52.190;4.422;2022-08-14T00:35:29;22.88;60.33
68943;DHT22;60852;52.190;4.422;2022-08-14T00:37:55;22.87;60.37
68943;DHT22;60852;52.190;4.422;2022-08-14T00:40:21;22.90;60.43
68943;DHT22;60852;52.190;4.422;2022-08-14T00:42:47;22.87;60.50
68943;DHT22;60852;52.190;4.422;2022-08-14T00:45:14;22.78;60.60
68943;DHT22;60852;52.190;4.422;2022-08-14T00:47:41;22.75;60.70
68943;DHT22;60852;52.190;4.422;2022-08-14T00:50:09;22.72;60.77
68943;DHT22;60852;52.190;4.422;2022-08-14T00:52:35;22.69;60.78
68943;DHT22;60852;52.190;4.422;2022-08-14T00:55:03;22.68;60.79
68943;DHT22;60852;52.190;4.422;2022-08-14T00:57:32;22.68;60.87
68943;DHT22;60852;52.190;4.422;2022-08-14T00:59:59;22.72;60.99
68943;DHT22;60852;52.190;4.422;2022-08-14T01:02:26;22.64;61.36
68943;DHT22;60852;52.190;4.422;2022-08-14T01:04:57;22.64;61.62
68943;DHT22;60852;52.190;4.422;2022-08-14T01:07:24;22.68;61.75
68943;DHT22;60852;52.190;4.422;2022-08-14T01:09:56;22.68;61.84
68943;DHT22;60852;52.190;4.422;2022-08-14T01:12:25;22.69;61.95
68943;DHT22;60852;52.190;4.422;2022-08-14T01:14:50;22.68;62.27
68943;DHT22;60852;52.190;4.422;2022-08-14T01:17:21;22.62;62.52
68943;DHT22;60852;52.190;4.422;2022-08-14T01:19:47;22.60;62.73
68943;DHT22;60852;52.190;4.422;2022-08-14T01:22:32;22.60;62.82
68943;DHT22;60852;52.190;4.422;2022-08-14T01:24:57;22.60;62.85
68943;DHT22;60852;52.190;4.422;2022-08-14T01:27:24;22.60;62.77
68943;DHT22;60852;52.190;4.422;2022-08-14T01:29:53;22.54;62.81
68943;DHT22;60852;52.190;4.422;2022-08-14T01:32:20;22.55;62.78
68943;DHT22;60852;52.190;4.422;2022-08-14T01:34:48;22.55;62.74
68943;DHT22;60852;52.190;4.422;2022-08-14T01:37:14;22.57;62.51
68943;DHT22;60852;52.190;4.422;2022-08-14T01:39:40;22.55;62.38
68943;DHT22;60852;52.190;4.422;2022-08-14T01:42:06;22.58;62.04
68943;DHT22;60852;52.190;4.422;2022-08-14T01:44:31;22.60;62.03
68943;DHT22;60852;52.190;4.422;2022-08-14T01:47:00;22.64;61.79
68943;DHT22;60852;52.190;4.422;2022-08-14T01:49:26;22.71;61.47
68943;DHT22;60852;52.190;4.422;2022-08-14T01:51:51;22.74;61.39
68943;DHT22;60852;52.190;4.422;2022-08-14T01:54:23;22.76;61.11
68943;DHT22;60852;52.190;4.422;2022-08-14T01:56:52;22.74;61.13
68943;DHT22;60852;52.190;4.422;2022-08-14T02:01:50;22.76;61.12
68943;DHT22;60852;52.190;4.422;2022-08-14T02:04:19;22.79;61.02
68943;DHT22;60852;52.190;4.422;2022-08-14T02:06:49;22.87;60.72
68943;DHT22;60852;52.190;4.422;2022-08-14T02:09:16;22.98;60.07
68943;DHT22;60852;52.190;4.422;2022-08-14T02:11:42;22.96;60.25
68943;DHT22;60852;52.190;4.422;2022-08-14T02:14:11;23.05;60.00
68943;DHT22;60852;52.190;4.422;2022-08-14T02:16:44;23.09;59.66
68943;DHT22;60852;52.190;4.422;2022-08-14T02:19:16;23.09;59.53
68943;DHT22;60852;52.190;4.422;2022-08-14T02:21:44;23.12;59.42
68943;DHT22;60852;52.190;4.422;2022-08-14T02:24:11;23.11;59.52
68943;DHT22;60852;52.190;4.422;2022-08-14T02:26:40;23.05;59.48
68943;DHT22;60852;52.190;4.422;2022-08-14T02:29:09;23.05;59.58
68943;DHT22;60852;52.190;4.422;2022-08-14T02:31:38;23.02;59.58
68943;DHT22;60852;52.190;4.422;2022-08-14T02:34:16;22.95;59.95
68943;DHT22;60852;52.190;4.422;2022-08-14T02:36:44;22.85;60.22
68943;DHT22;60852;52.190;4.422;2022-08-14T02:39:11;22.74;60.63
68943;DHT22;60852;52.190;4.422;2022-08-14T02:41:37;22.64;61.03
68943;DHT22;60852;52.190;4.422;2022-08-14T02:44:04;22.53;61.23
68943;DHT22;60852;52.190;4.422;2022-08-14T02:46:31;22.45;61.30
68943;DHT22;60852;52.190;4.422;2022-08-14T02:48:57;22.39;61.44
68943;DHT22;60852;52.190;4.422;2022-08-14T02:51:23;22.33;61.70
68943;DHT22;60852;52.190;4.422;2022-08-14T02:53:48;22.27;61.85
68943;DHT22;60852;52.190;4.422;2022-08-14T02:56:16;22.20;62.11
68943;DHT22;60852;52.190;4.422;2022-08-14T02:58:47;22.16;62.25
68943;DHT22;60852;52.190;4.422;2022-08-14T03:01:15;22.09;62.43
68943;DHT22;60852;52.190;4.422;2022-08-14T03:03:42;22.09;62.73
68943;DHT22;60852;52.190;4.422;2022-08-14T03:06:09;22.00;62.94
68943;DHT22;60852;52.190;4.422;2022-08-14T03:08:37;21.96;63.12
68943;DHT22;60852;52.190;4.422;2022-08-14T03:11:06;21.90;63.30
68943;DHT22;60852;52.190;4.422;2022-08-14T03:13:36;21.85;63.56
68943;DHT22;60852;52.190;4.422;2022-08-14T03:16:05;21.82;63.68
68943;DHT22;60852;52.190;4.422;2022-08-14T03:18:31;21.76;63.85
68943;DHT22;60852;52.190;4.422;2022-08-14T03:21:04;21.75;63.99
68943;DHT22;60852;52.190;4.422;2022-08-14T03:23:30;21.75;64.01
68943;DHT22;60852;52.190;4.422;2022-08-14T03:25:58;21.71;64.04
68943;DHT22;60852;52.190;4.422;2022-08-14T03:28:25;21.78;63.96
68943;DHT22;60852;52.190;4.422;2022-08-14T03:30:52;21.79;63.82
68943;DHT22;60852;52.190;4.422;2022-08-14T03:33:17;21.82;63.76
68943;DHT22;60852;52.190;4.422;2022-08-14T03:35:43;21.85;63.60
68943;DHT22;60852;52.190;4.422;2022-08-14T03:38:11;21.89;63.57
68943;DHT22;60852;52.190;4.422;2022-08-14T03:40:39;21.86;63.63
68943;DHT22;60852;52.190;4.422;2022-08-14T03:43:09;21.85;63.84
68943;DHT22;60852;52.190;4.422;2022-08-14T03:45:36;21.81;63.89
68943;DHT22;60852;52.190;4.422;2022-08-14T03:48:16;21.85;63.93
68943;DHT22;60852;52.190;4.422;2022-08-14T03:50:49;21.89;63.67
68943;DHT22;60852;52.190;4.422;2022-08-14T03:53:18;21.89;63.71
68943;DHT22;60852;52.190;4.422;2022-08-14T03:55:45;21.88;63.65
68943;DHT22;60852;52.190;4.422;2022-08-14T03:58:12;21.90;63.65
68943;DHT22;60852;52.190;4.422;2022-08-14T04:00:39;21.88;63.70
68943;DHT22;60852;52.190;4.422;2022-08-14T04:03:08;21.89;63.71
68943;DHT22;60852;52.190;4.422;2022-08-14T04:05:36;21.86;63.62
68943;DHT22;60852;52.190;4.422;2022-08-14T04:08:10;21.93;63.48
68943;DHT22;60852;52.190;4.422;2022-08-14T04:10:36;21.97;63.19
68943;DHT22;60852;52.190;4.422;2022-08-14T04:13:04;22.03;63.00
68943;DHT22;60852;52.190;4.422;2022-08-14T04:15:34;22.06;63.06
68943;DHT22;60852;52.190;4.422;2022-08-14T04:18:04;22.12;62.73
68943;DHT22;60852;52.190;4.422;2022-08-14T04:20:37;22.10;62.76
68943;DHT22;60852;52.190;4.422;2022-08-14T04:23:05;22.04;63.10
68943;DHT22;60852;52.190;4.422;2022-08-14T04:25:35;21.96;63.30
68943;DHT22;60852;52.190;4.422;2022-08-14T04:28:03;21.95;63.36
68943;DHT22;60852;52.190;4.422;2022-08-14T04:30:31;21.95;63.26
68943;DHT22;60852;52.190;4.422;2022-08-14T04:32:57;21.95;63.18
68943;DHT22;60852;52.190;4.422;2022-08-14T04:35:23;21.97;63.26
68943;DHT22;60852;52.190;4.422;2022-08-14T04:37:49;21.90;63.24
68943;DHT22;60852;52.190;4.422;2022-08-14T04:40:33;21.99;62.97
68943;DHT22;60852;52.190;4.422;2022-08-14T04:43:17;22.02;62.89
68943;DHT22;60852;52.190;4.422;2022-08-14T04:46:03;21.99;62.70
68943;DHT22;60852;52.190;4.422;2022-08-14T04:48:29;22.02;62.66
68943;DHT22;60852;52.190;4.422;2022-08-14T04:50:54;22.07;62.49
68943;DHT22;60852;52.190;4.422;2022-08-14T04:53:27;22.09;62.40
68943;DHT22;60852;52.190;4.422;2022-08-14T04:55:54;22.09;62.28
68943;DHT22;60852;52.190;4.422;2022-08-14T04:58:28;22.12;62.16
68943;DHT22;60852;52.190;4.422;2022-08-14T05:00:56;22.44;61.34
68943;DHT22;60852;52.190;4.422;2022-08-14T05:03:24;23.05;59.49
68943;DHT22;60852;52.190;4.422;2022-08-14T05:05:53;23.73;57.36
68943;DHT22;60852;52.190;4.422;2022-08-14T05:08:21;24.21;55.86
68943;DHT22;60852;52.190;4.422;2022-08-14T05:10:54;24.76;53.97
68943;DHT22;60852;52.190;4.422;2022-08-14T05:13:23;25.13;52.84
68943;DHT22;60852;52.190;4.422;2022-08-14T05:15:49;25.65;51.46
68943;DHT22;60852;52.190;4.422;2022-08-14T05:18:21;25.98;50.65
68943;DHT22;60852;52.190;4.422;2022-08-14T05:20:53;26.33;49.50
68943;DHT22;60852;52.190;4.422;2022-08-14T05:23:24;26.67;48.79
68943;DHT22;60852;52.190;4.422;2022-08-14T05:25:53;26.81;48.27
68943;DHT22;60852;52.190;4.422;2022-08-14T05:28:22;26.40;49.31
68943;DHT22;60852;52.190;4.422;2022-08-14T05:30:50;25.67;51.04
68943;DHT22;60852;52.190;4.422;2022-08-14T05:33:17;25.11;52.35
68943;DHT22;60852;52.190;4.422;2022-08-14T05:35:45;24.60;53.64
68943;DHT22;60852;52.190;4.422;2022-08-14T05:38:13;24.22;54.60
68943;DHT22;60852;52.190;4.422;2022-08-14T05:40:40;24.08;55.21
68943;DHT22;60852;52.190;4.422;2022-08-14T05:43:06;23.98;55.36
68943;DHT22;60852;52.190;4.422;2022-08-14T05:45:32;23.91;55.38
68943;DHT22;60852;52.190;4.422;2022-08-14T05:47:58;23.82;55.50
68943;DHT22;60852;52.190;4.422;2022-08-14T05:50:24;23.71;55.85
68943;DHT22;60852;52.190;4.422;2022-08-14T05:52:53;23.64;55.92
68943;DHT22;60852;52.190;4.422;2022-08-14T05:55:19;23.57;56.14
68943;DHT22;60852;52.190;4.422;2022-08-14T05:57:57;23.56;55.99
68943;DHT22;60852;52.190;4.422;2022-08-14T06:00:29;23.54;56.02
68943;DHT22;60852;52.190;4.422;2022-08-14T06:02:56;23.64;55.84
68943;DHT22;60852;52.190;4.422;2022-08-14T06:05:22;23.63;55.72
68943;DHT22;60852;52.190;4.422;2022-08-14T06:07:48;23.63;55.90
68943;DHT22;60852;52.190;4.422;2022-08-14T06:10:13;23.69;55.88
68943;DHT22;60852;52.190;4.422;2022-08-14T06:12:39;23.66;55.92
68943;DHT22;60852;52.190;4.422;2022-08-14T06:15:07;23.63;55.93
68943;DHT22;60852;52.190;4.422;2022-08-14T06:20:09;23.63;55.88
68943;DHT22;60852;52.190;4.422;2022-08-14T06:22:35;23.69;55.81
68943;DHT22;60852;52.190;4.422;2022-08-14T06:25:00;23.75;55.69
68943;DHT22;60852;52.190;4.422;2022-08-14T06:27:26;23.75;55.68
68943;DHT22;60852;52.190;4.422;2022-08-14T06:29:51;23.82;55.71
68943;DHT22;60852;52.190;4.422;2022-08-14T06:32:16;23.84;55.45
68943;DHT22;60852;52.190;4.422;2022-08-14T06:34:42;23.88;55.59
68943;DHT22;60852;52.190;4.422;2022-08-14T06:37:08;23.97;55.02
68943;DHT22;60852;52.190;4.422;2022-08-14T06:39:33;24.01;54.98
68943;DHT22;60852;52.190;4.422;2022-08-14T06:41:59;24.01;54.71
68943;DHT22;60852;52.190;4.422;2022-08-14T06:44:26;24.02;54.82
68943;DHT22;60852;52.190;4.422;2022-08-14T06:46:52;24.08;54.62
68943;DHT22;60852;52.190;4.422;2022-08-14T06:49:17;24.15;54.65
68943;DHT22;60852;52.190;4.422;2022-08-14T06:51:43;24.22;53.28
68943;DHT22;60852;52.190;4.422;2022-08-14T06:54:11;24.25;53.68
68943;DHT22;60852;52.190;4.422;2022-08-14T06:56:38;24.33;53.19
68943;DHT22;60852;52.190;4.422;2022-08-14T06:59:04;24.42;52.68
68943;DHT22;60852;52.190;4.422;2022-08-14T07:01:29;24.48;52.41
68943;DHT22;60852;52.190;4.422;2022-08-14T07:04:13;24.65;52.34
68943;DHT22;60852;52.190;4.422;2022-08-14T07:06:57;24.76;51.95
68943;DHT22;60852;52.190;4.422;2022-08-14T07:09:23;24.82;51.80
68943;DHT22;60852;52.190;4.422;2022-08-14T07:11:49;24.76;51.23
68943;DHT22;60852;52.190;4.422;2022-08-14T07:14:14;24.83;51.53
68943;DHT22;60852;52.190;4.422;2022-08-14T07:16:40;24.96;51.66
68943;DHT22;60852;52.190;4.422;2022-08-14T07:19:05;25.10;51.43
68943;DHT22;60852;52.190;4.422;2022-08-14T07:21:33;25.14;51.28
68943;DHT22;60852;52.190;4.422;2022-08-14T07:23:58;25.13;51.32
68943;DHT22;60852;52.190;4.422;2022-08-14T07:26:24;25.17;50.98
68943;DHT22;60852;52.190;4.422;2022-08-14T07:28:49;25.26;50.82
68943;DHT22;60852;52.190;4.422;2022-08-14T07:31:15;25.35;51.12
68943;DHT22;60852;52.190;4.422;2022-08-14T07:33:47;25.33;50.69
68943;DHT22;60852;52.190;4.422;2022-08-14T07:36:17;25.28;50.78
68943;DHT22;60852;52.190;4.422;2022-08-14T07:38:43;25.27;51.22
68943;DHT22;60852;52.190;4.422;2022-08-14T07:41:10;25.38;50.65
68943;DHT22;60852;52.190;4.422;2022-08-14T07:43:36;25.49;50.62
68943;DHT22;60852;52.190;4.422;2022-08-14T07:46:03;25.41;50.73
68943;DHT22;60852;52.190;4.422;2022-08-14T07:48:29;25.44;51.08
68943;DHT22;60852;52.190;4.422;2022-08-14T07:50:55;25.55;51.35
68943;DHT22;60852;52.190;4.422;2022-08-14T07:53:20;25.67;51.30
68943;DHT22;60852;52.190;4.422;2022-08-14T07:55:47;25.71;51.50
68943;DHT22;60852;52.190;4.422;2022-08-14T07:58:13;25.78;51.20
68943;DHT22;60852;52.190;4.422;2022-08-14T08:00:40;25.86;51.22
68943;DHT22;60852;52.190;4.422;2022-08-14T08:03:07;25.92;51.35
68943;DHT22;60852;52.190;4.422;2022-08-14T08:05:38;25.95;50.79
68943;DHT22;60852;52.190;4.422;2022-08-14T08:08:06;25.99;50.68
68943;DHT22;60852;52.190;4.422;2022-08-14T08:10:32;26.03;50.26
68943;DHT22;60852;52.190;4.422;2022-08-14T08:15:32;26.17;49.45
68943;DHT22;60852;52.190;4.422;2022-08-14T08:18:05;26.22;49.27
68943;DHT22;60852;52.190;4.422;2022-08-14T08:20:36;26.32;49.75
68943;DHT22;60852;52.190;4.422;2022-08-14T08:23:05;26.32;50.16
68943;DHT22;60852;52.190;4.422;2022-08-14T08:25:36;26.35;49.19
68943;DHT22;60852;52.190;4.422;2022-08-14T08:28:09;26.46;48.80
68943;DHT22;60852;52.190;4.422;2022-08-14T08:30:37;26.58;49.47
68943;DHT22;60852;52.190;4.422;2022-08-14T08:33:04;26.65;49.09
68943;DHT22;60852;52.190;4.422;2022-08-14T08:35:33;26.65;48.38
68943;DHT22;60852;52.190;4.422;2022-08-14T08:38:05;26.61;48.89
68943;DHT22;60852;52.190;4.422;2022-08-14T08:40:34;26.71;48.88
68943;DHT22;60852;52.190;4.422;2022-08-14T08:43:23;26.87;48.72
68943;DHT22;60852;52.190;4.422;2022-08-14T08:46:03;26.98;47.89
68943;DHT22;60852;52.190;4.422;2022-08-14T08:51:08;27.26;46.86
68943;DHT22;60852;52.190;4.422;2022-08-14T08:53:34;27.28;46.05
68943;DHT22;60852;52.190;4.422;2022-08-14T08:56:01;27.33;46.33
68943;DHT22;60852;52.190;4.422;2022-08-14T08:58:27;27.39;45.57
68943;DHT22;60852;52.190;4.422;2022-08-14T09:00:56;27.50;46.13
68943;DHT22;60852;52.190;4.422;2022-08-14T09:03:25;27.62;45.98
68943;DHT22;60852;52.190;4.422;2022-08-14T09:08:23;27.82;45.58
68943;DHT22;60852;52.190;4.422;2022-08-14T09:10:53;27.86;45.94
68943;DHT22;60852;52.190;4.422;2022-08-14T09:13:20;27.96;45.91
68943;DHT22;60852;52.190;4.422;2022-08-14T09:15:47;28.01;45.41
68943;DHT22;60852;52.190;4.422;2022-08-14T09:18:17;28.07;45.20
68943;DHT22;60852;52.190;4.422;2022-08-14T09:20:47;28.15;45.69
68943;DHT22;60852;52.190;4.422;2022-08-14T09:23:14;28.28;45.65
68943;DHT22;60852;52.190;4.422;2022-08-14T09:25:42;28.41;45.61
68943;DHT22;60852;52.190;4.422;2022-08-14T09:28:09;28.47;45.04
68943;DHT22;60852;52.190;4.422;2022-08-14T09:30:42;28.53;45.77
68943;DHT22;60852;52.190;4.422;2022-08-14T09:36:39;28.55;47.16
68943;DHT22;60852;52.190;4.422;2022-08-14T09:39:12;28.48;46.46
68943;DHT22;60852;52.190;4.422;2022-08-14T09:46:59;28.76;43.67
68943;DHT22;60852;52.190;4.422;2022-08-14T09:49:34;28.88;44.59
68943;DHT22;60852;52.190;4.422;2022-08-14T09:52:11;28.88;44.83
68943;DHT22;60852;52.190;4.422;2022-08-14T09:54:42;28.99;44.50
68943;DHT22;60852;52.190;4.422;2022-08-14T09:57:24;28.95;44.74
68943;DHT22;60852;52.190;4.422;2022-08-14T09:59:51;28.99;44.49
68943;DHT22;60852;52.190;4.422;2022-08-14T10:02:23;29.19;44.71
68943;DHT22;60852;52.190;4.422;2022-08-14T10:07:55;29.30;42.78
68943;DHT22;60852;52.190;4.422;2022-08-14T10:10:46;29.41;43.70
68943;DHT22;60852;52.190;4.422;2022-08-14T10:13:23;29.62;42.59
68943;DHT22;60852;52.190;4.422;2022-08-14T10:15:50;30.33;42.09
68943;DHT22;60852;52.190;4.422;2022-08-14T10:18:18;30.60;41.58
68943;DHT22;60852;52.190;4.422;2022-08-14T10:20:57;30.68;41.02
68943;DHT22;60852;52.190;4.422;2022-08-14T10:23:25;30.87;39.90
68943;DHT22;60852;52.190;4.422;2022-08-14T10:25:57;31.32;40.21
68943;DHT22;60852;52.190;4.422;2022-08-14T10:28:41;31.45;39.01
68943;DHT22;60852;52.190;4.422;2022-08-14T10:31:28;31.45;39.61
68943;DHT22;60852;52.190;4.422;2022-08-14T10:36:44;31.73;39.29
68943;DHT22;60852;52.190;4.422;2022-08-14T10:39:20;31.89;38.63
68943;DHT22;60852;52.190;4.422;2022-08-14T10:41:47;32.00;38.06
68943;DHT22;60852;52.190;4.422;2022-08-14T10:44:15;32.14;37.76
68943;DHT22;60852;52.190;4.422;2022-08-14T10:46:45;32.19;37.65
68943;DHT22;60852;52.190;4.422;2022-08-14T10:49:21;31.82;37.34
68943;DHT22;60852;52.190;4.422;2022-08-14T10:52:00;31.76;37.44
68943;DHT22;60852;52.190;4.422;2022-08-14T10:57:22;31.79;38.35
68943;DHT22;60852;52.190;4.422;2022-08-14T11:02:35;32.27;37.46
68943;DHT22;60852;52.190;4.422;2022-08-14T11:05:14;32.31;37.38
68943;DHT22;60852;52.190;4.422;2022-08-14T11:08:02;31.94;38.29
68943;DHT22;60852;52.190;4.422;2022-08-14T11:13:08;32.09;37.04
68943;DHT22;60852;52.190;4.422;2022-08-14T11:15:35;31.90;36.80
68943;DHT22;60852;52.190;4.422;2022-08-14T11:18:01;31.69;37.01
68943;DHT22;60852;52.190;4.422;2022-08-14T11:20:29;31.67;37.20
68943;DHT22;60852;52.190;4.422;2022-08-14T11:22:58;31.43;37.70
68943;DHT22;60852;52.190;4.422;2022-08-14T11:25:28;31.61;35.94
68943;DHT22;60852;52.190;4.422;2022-08-14T11:27:57;31.61;37.29
68943;DHT22;60852;52.190;4.422;2022-08-14T11:30:26;31.89;36.86
68943;DHT22;60852;52.190;4.422;2022-08-14T11:32:55;32.07;35.04
68943;DHT22;60852;52.190;4.422;2022-08-14T11:35:23;32.13;35.25
68943;DHT22;60852;52.190;4.422;2022-08-14T11:37:57;32.43;35.35
68943;DHT22;60852;52.190;4.422;2022-08-14T11:40:28;32.71;35.37
68943;DHT22;60852;52.190;4.422;2022-08-14T11:42:56;32.89;34.91
68943;DHT22;60852;52.190;4.422;2022-08-14T11:45:24;33.02;32.90
68943;DHT22;60852;52.190;4.422;2022-08-14T11:47:54;32.99;34.38
68943;DHT22;60852;52.190;4.422;2022-08-14T11:50:29;32.92;34.01
68943;DHT22;60852;52.190;4.422;2022-08-14T11:52:57;32.95;30.79
68943;DHT22;60852;52.190;4.422;2022-08-14T11:55:25;33.13;32.42
68943;DHT22;60852;52.190;4.422;2022-08-14T11:58:06;33.09;31.64
68943;DHT22;60852;52.190;4.422;2022-08-14T12:00:44;33.02;30.95
68943;DHT22;60852;52.190;4.422;2022-08-14T12:03:09;33.03;32.02
68943;DHT22;60852;52.190;4.422;2022-08-14T12:05:37;33.09;31.57
68943;DHT22;60852;52.190;4.422;2022-08-14T12:08:05;33.19;31.01
68943;DHT22;60852;52.190;4.422;2022-08-14T12:10:41;33.15;30.46
68943;DHT22;60852;52.190;4.422;2022-08-14T12:13:16;33.30;31.34
68943;DHT22;60852;52.190;4.422;2022-08-14T12:15:45;33.42;31.04
68943;DHT22;60852;52.190;4.422;2022-08-14T12:18:11;33.33;31.35
68943;DHT22;60852;52.190;4.422;2022-08-14T12:20:39;33.25;30.85
68943;DHT22;60852;52.190;4.422;2022-08-14T12:23:22;32.98;32.12
68943;DHT22;60852;52.190;4.422;2022-08-14T12:25:48;32.92;31.97
68943;DHT22;60852;52.190;4.422;2022-08-14T12:28:14;32.95;32.28
68943;DHT22;60852;52.190;4.422;2022-08-14T12:30:43;32.92;31.98
68943;DHT22;60852;52.190;4.422;2022-08-14T12:33:21;32.62;32.68
68943;DHT22;60852;52.190;4.422;2022-08-14T12:35:50;32.71;31.98
68943;DHT22;60852;52.190;4.422;2022-08-14T12:38:15;32.47;31.39
68943;DHT22;60852;52.190;4.422;2022-08-14T12:40:52;32.37;30.84
68943;DHT22;60852;52.190;4.422;2022-08-14T12:43:19;32.55;28.90
68943;DHT22;60852;52.190;4.422;2022-08-14T12:45:51;32.72;28.05
68943;DHT22;60852;52.190;4.422;2022-08-14T12:48:20;32.99;27.73
68943;DHT22;60852;52.190;4.422;2022-08-14T12:50:47;33.13;27.09
68943;DHT22;60852;52.190;4.422;2022-08-14T12:53:15;33.36;27.49
68943;DHT22;60852;52.190;4.422;2022-08-14T12:55:43;33.59;26.86
68943;DHT22;60852;52.190;4.422;2022-08-14T12:58:10;33.76;26.51
68943;DHT22;60852;52.190;4.422;2022-08-14T13:00:46;33.90;26.18
68943;DHT22;60852;52.190;4.422;2022-08-14T13:03:23;34.01;25.41
68943;DHT22;60852;52.190;4.422;2022-08-14T13:05:49;34.05;25.82
68943;DHT22;60852;52.190;4.422;2022-08-14T13:08:15;33.97;26.08
68943;DHT22;60852;52.190;4.422;2022-08-14T13:10:41;33.87;26.19
68943;DHT22;60852;52.190;4.422;2022-08-14T13:13:08;33.88;25.64
68943;DHT22;60852;52.190;4.422;2022-08-14T13:15:35;33.70;25.85
68943;DHT22;60852;52.190;4.422;2022-08-14T13:18:02;33.19;26.06
68943;DHT22;60852;52.190;4.422;2022-08-14T13:20:29;33.11;26.35
68943;DHT22;60852;52.190;4.422;2022-08-14T13:22:55;33.29;26.54
68943;DHT22;60852;52.190;4.422;2022-08-14T13:25:25;33.56;25.68
68943;DHT22;60852;52.190;4.422;2022-08-14T13:27:56;33.73;26.05
68943;DHT22;60852;52.190;4.422;2022-08-14T13:30:24;33.91;26.44
68943;DHT22;60852;52.190;4.422;2022-08-14T13:32:55;34.15;26.15
68943;DHT22;60852;52.190;4.422;2022-08-14T13:35:22;34.22;25.46
68943;DHT22;60852;52.190;4.422;2022-08-14T13:37:49;34.19;25.61
68943;DHT22;60852;52.190;4.422;2022-08-14T13:40:17;34.02;26.06
68943;DHT22;60852;52.190;4.422;2022-08-14T13:42:46;34.08;26.31
68943;DHT22;60852;52.190;4.422;2022-08-14T13:45:12;34.15;25.86
68943;DHT22;60852;52.190;4.422;2022-08-14T13:47:41;34.02;25.74
68943;DHT22;60852;52.190;4.422;2022-08-14T13:50:09;33.84;25.95
68943;DHT22;60852;52.190;4.422;2022-08-14T13:52:47;33.80;26.38
68943;DHT22;60852;52.190;4.422;2022-08-14T13:55:24;33.73;27.47
68943;DHT22;60852;52.190;4.422;2022-08-14T13:57:50;33.74;27.74
68943;DHT22;60852;52.190;4.422;2022-08-14T14:00:17;33.93;27.20
68943;DHT22;60852;52.190;4.422;2022-08-14T14:02:46;34.12;27.06
68943;DHT22;60852;52.190;4.422;2022-08-14T14:05:16;34.09;26.63
68943;DHT22;60852;52.190;4.422;2022-08-14T14:07:50;34.08;26.57
68943;DHT22;60852;52.190;4.422;2022-08-14T14:10:17;34.00;27.25
68943;DHT22;60852;52.190;4.422;2022-08-14T14:12:45;33.94;27.05
68943;DHT22;60852;52.190;4.422;2022-08-14T14:15:17;33.87;27.24
68943;DHT22;60852;52.190;4.422;2022-08-14T14:17:43;33.77;27.23
68943;DHT22;60852;52.190;4.422;2022-08-14T14:20:13;33.74;27.96
68943;DHT22;60852;52.190;4.422;2022-08-14T14:22:41;33.73;27.98
68943;DHT22;60852;52.190;4.422;2022-08-14T14:25:11;33.70;28.27
68943;DHT22;60852;52.190;4.422;2022-08-14T14:27:40;33.63;28.51
68943;DHT22;60852;52.190;4.422;2022-08-14T14:30:08;33.69;28.78
68943;DHT22;60852;52.190;4.422;2022-08-14T14:32:37;33.73;28.14
68943;DHT22;60852;52.190;4.422;2022-08-14T14:35:11;33.73;28.77
68943;DHT22;60852;52.190;4.422;2022-08-14T14:37:41;33.74;28.96
68943;DHT22;60852;52.190;4.422;2022-08-14T14:40:07;33.82;27.63
68943;DHT22;60852;52.190;4.422;2022-08-14T14:42:33;33.86;28.29
68943;DHT22;60852;52.190;4.422;2022-08-14T14:45:25;33.91;27.71
68943;DHT22;60852;52.190;4.422;2022-08-14T14:47:53;33.91;28.21
68943;DHT22;60852;52.190;4.422;2022-08-14T14:50:21;33.93;28.15
68943;DHT22;60852;52.190;4.422;2022-08-14T14:52:47;33.67;27.60
68943;DHT22;60852;52.190;4.422;2022-08-14T14:55:14;33.22;28.60
68943;DHT22;60852;52.190;4.422;2022-08-14T14:57:41;33.08;28.56
68943;DHT22;60852;52.190;4.422;2022-08-14T15:00:10;33.20;28.75
68943;DHT22;60852;52.190;4.422;2022-08-14T15:02:40;33.26;29.24
68943;DHT22;60852;52.190;4.422;2022-08-14T15:05:07;33.32;29.24
68943;DHT22;60852;52.190;4.422;2022-08-14T15:07:33;33.36;29.05
68943;DHT22;60852;52.190;4.422;2022-08-14T15:09:59;33.42;28.76
68943;DHT22;60852;52.190;4.422;2022-08-14T15:12:24;33.51;28.30
68943;DHT22;60852;52.190;4.422;2022-08-14T15:14:51;33.57;28.92
68943;DHT22;60852;52.190;4.422;2022-08-14T15:17:17;33.54;28.11
68943;DHT22;60852;52.190;4.422;2022-08-14T15:19:44;33.60;28.60
68943;DHT22;60852;52.190;4.422;2022-08-14T15:22:09;33.66;28.13
68943;DHT22;60852;52.190;4.422;2022-08-14T15:24:35;33.63;28.97
68943;DHT22;60852;52.190;4.422;2022-08-14T15:27:02;33.59;28.23
68943;DHT22;60852;52.190;4.422;2022-08-14T15:29:31;33.42;29.51
68943;DHT22;60852;52.190;4.422;2022-08-14T15:31:56;33.34;28.43
68943;DHT22;60852;52.190;4.422;2022-08-14T15:34:22;33.30;28.74
68943;DHT22;60852;52.190;4.422;2022-08-14T15:36:47;33.33;28.84
68943;DHT22;60852;52.190;4.422;2022-08-14T15:39:14;33.23;29.05
68943;DHT22;60852;52.190;4.422;2022-08-14T15:41:40;33.25;29.41
68943;DHT22;60852;52.190;4.422;2022-08-14T15:44:06;33.29;30.03
68943;DHT22;60852;52.190;4.422;2022-08-14T15:46:33;33.36;29.58
68943;DHT22;60852;52.190;4.422;2022-08-14T15:48:59;33.42;29.96
68943;DHT22;60852;52.190;4.422;2022-08-14T15:51:25;33.49;29.12
68943;DHT22;60852;52.190;4.422;2022-08-14T15:53:56;33.42;28.82
68943;DHT22;60852;52.190;4.422;2022-08-14T15:56:21;33.27;29.21
68943;DHT22;60852;52.190;4.422;2022-08-14T15:58:47;33.30;29.44
68943;DHT22;60852;52.190;4.422;2022-08-14T16:01:12;33.26;28.95
68943;DHT22;60852;52.190;4.422;2022-08-14T16:03:53;33.29;29.18
68943;DHT22;60852;52.190;4.422;2022-08-14T16:06:22;33.22;29.20
68943;DHT22;60852;52.190;4.422;2022-08-14T16:08:51;33.13;29.36
68943;DHT22;60852;52.190;4.422;2022-08-14T16:11:17;33.12;29.62
68943;DHT22;60852;52.190;4.422;2022-08-14T16:13:43;33.20;29.33
68943;DHT22;60852;52.190;4.422;2022-08-14T16:16:21;33.25;29.25